首页
METAR-TAF:

METAR-TAF

机场 :

加蒂諾, 魁北克, 加拿大

纬度: 45-31N, 经度: 075-34W, 海拔: 64米

当前天气观测

该预报发布于16分钟前的16:00 UTC
风速6节,风向
温度 -2°C
湿度 69%
气压 1024 hPa
能見度: 19.3公里
少量云层高于13000英尺
多云层高于18000英尺
阴天层高于23000英尺

METAR: CYND 131600Z 08006KT 12SM FEW130 BKN180 OVC230 M02/M07 A3025 RMK AC1AS5CI2 SLP250

时间: 11:16 (16:16 UTC)

预报

该预报发布于2小时和38分钟前的13:38 UTC
预报有效从13日的 14点(UTC)到 14日的 02点(UTC)
风速8节,风向
能見度: 10公里
多云层高于17000英尺
从 13日的 1700点(UTC)
风速12节,风向
能見度: 10公里
少量云层高于2500英尺
多云层高于22000英尺
从 14日的 0100点(UTC)
风速10节,风向
能見度: 10公里
散云层高于2500英尺
多云层高于9000英尺
阴天层高于15000英尺

TAF: CYND 131338Z 1314/1402 08008KT P6SM BKN170 FM131700 09012KT P6SM FEW025 BKN220 FM140100 08010KT P6SM SCT025 BKN090 OVC150 RMK NXT FCST BY 131800Z

超过4000个机场的气象观测和天气预报(METAR&TAF报告)。

可查询的气象台以黄色和红色小点在地图上表示。

将鼠标移到小点上方,可查看气象台名称。

然后点击查看天气观测和预报。

如需切换地图:点击带黑十字的绿色按钮放大地图;点击带横线的绿色按钮缩小地图;或者点击绿色箭头查看邻近地区的地图。


METAR-TAF: